John Grimsley #59 — WDE7876 — position and weather

sailwx.info

Track history (hours):
 
Tides and Currents Weather Stations Pressure Air Temp Water Temp Dewpoint Dewpoint Depression Visibility Wind Speed Wind Dir Waves Ship Positions

John Grimsley #59

Owner: Florida Marine Transporters, Inc., Mandeville, LA. More information available from US FCC via Universal Licensing System and Coast Guard Vessel Documentation Center.

Last reported at 2018-Feb-20 00:49 UTC. Time now 2018-Feb-23 06:54 UTC.
Position N 38°37' W 090°11'.

Length 43 m; draft 3.2 m.

Type: Ship. MMSI: 367398790.

Date/timePositionNaut miles runAvg speedWind from/ knotsBaromVisibWave heightAir tempDewpointWater temp
2018-Feb-20 00:49N 38°37' W 090°11'3 7.9
2018-Feb-20 00:27N 38°40' W 090°11'2 4.4
2018-Feb-20 00:00N 38°42' W 090°11'1 0.9
2018-Feb-19 23:28N 38°42' W 090°11'1 2.6
2018-Feb-19 23:00N 38°43' W 090°10'2 4.4
2018-Feb-19 22:30N 38°45' W 090°09'2 3.9
2018-Feb-19 22:00N 38°47' W 090°08'3 5.5
2018-Feb-19 21:30N 38°50' W 090°07'0 0.6
2018-Feb-19 21:00N 38°49' W 090°07'0 0.1
2018-Feb-19 20:31N 38°49' W 090°07'0 0.1
2018-Feb-19 20:00N 38°49' W 090°07'0 0.0
2018-Feb-19 19:30N 38°49' W 090°07'1 1.6
2018-Feb-19 19:01N 38°50' W 090°06'0 0.1
2018-Feb-19 18:29N 38°50' W 090°06'0 0.0
2018-Feb-19 18:00N 38°50' W 090°06'2 3.4
2018-Feb-19 17:30N 38°48' W 090°07'3 5.8
2018-Feb-19 17:00N 38°46' W 090°08'3 5.9
2018-Feb-19 16:30N 38°43' W 090°10'1 2.7
2018-Feb-19 16:00N 38°42' W 090°11'3 5.2
2018-Feb-19 15:29N 38°39' W 090°11'4 0.9
2018-Feb-19 11:34N 38°36' W 090°12'2 7.3
2018-Feb-19 11:20N 38°37' W 090°11'3 9.2
2018-Feb-19 11:00N 38°40' W 090°11'2 3.1
2018-Feb-19 10:26N 38°42' W 090°11'1 2.1
2018-Feb-19 09:57N 38°43' W 090°10'2 5.2
2018-Feb-19 09:29N 38°45' W 090°09'3 5.4
2018-Feb-19 09:00N 38°47' W 090°07'1 1.4
2018-Feb-19 08:31N 38°48' W 090°07'0 0.2
2018-Feb-19 08:00N 38°48' W 090°07'1 1.1
2018-Feb-19 07:30N 38°49' W 090°07'1 1.3
2018-Feb-19 07:00N 38°49' W 090°07'0 0.1
2018-Feb-19 06:31N 38°49' W 090°07'0 0.2
2018-Feb-19 06:01N 38°49' W 090°07'0 0.8
2018-Feb-19 05:30N 38°50' W 090°07'0 0.0
2018-Feb-19 05:01N 38°50' W 090°07'0 0.0
2018-Feb-19 04:30N 38°50' W 090°07'0 0.0
2018-Feb-19 04:00N 38°50' W 090°07'0 0.0
2018-Feb-19 03:31N 38°50' W 090°07'0 0.0
2018-Feb-19 03:01N 38°50' W 090°07'0 0.0
2018-Feb-19 02:31N 38°50' W 090°07'0 0.0
2018-Feb-19 02:00N 38°50' W 090°07'0 0.0
2018-Feb-19 01:31N 38°50' W 090°07'0 0.0
2018-Feb-19 01:00N 38°50' W 090°07'0 0.0
2018-Feb-19 00:30N 38°50' W 090°07'0 0.0
2018-Feb-19 00:00N 38°50' W 090°07'0 0.0
2018-Feb-18 23:30N 38°50' W 090°07'0 0.0
2018-Feb-18 23:00N 38°50' W 090°07'0 0.0
2018-Feb-18 22:30N 38°50' W 090°07'0 0.0
2018-Feb-18 22:01N 38°50' W 090°07'0 0.0
2018-Feb-18 21:30N 38°50' W 090°07'0 0.0
2018-Feb-18 21:00N 38°50' W 090°07'0 0.0
2018-Feb-18 20:30N 38°50' W 090°07'0 0.0
2018-Feb-18 20:00N 38°50' W 090°07'0 0.0
2018-Feb-18 19:30N 38°50' W 090°07'0 0.0
2018-Feb-18 19:00N 38°50' W 090°07'0 0.0
2018-Feb-18 18:30N 38°50' W 090°07'0 0.0
2018-Feb-18 18:00N 38°50' W 090°07'0 0.0
2018-Feb-18 17:30N 38°50' W 090°07'0 0.0
2018-Feb-18 17:00N 38°50' W 090°07'0 0.0
2018-Feb-18 16:30N 38°50' W 090°07'0 0.0
2018-Feb-18 16:01N 38°50' W 090°07'0 0.0
2018-Feb-18 15:30N 38°50' W 090°07'0 0.3
2018-Feb-18 15:00N 38°49' W 090°07'0 0.6
2018-Feb-18 14:30N 38°49' W 090°07'0 0.8
2018-Feb-18 14:00N 38°50' W 090°07'0 0.0
2018-Feb-18 13:30N 38°50' W 090°07'0 0.0
2018-Feb-18 13:00N 38°50' W 090°07'0 0.0
2018-Feb-18 12:30N 38°50' W 090°07'0 0.0
2018-Feb-18 12:01N 38°50' W 090°07'0 0.0
2018-Feb-18 11:31N 38°50' W 090°07'0 0.0
2018-Feb-18 11:00N 38°50' W 090°07'0 0.0
2018-Feb-18 10:30N 38°50' W 090°07'0 0.0
2018-Feb-18 10:01N 38°50' W 090°07'0 0.0
2018-Feb-18 09:30N 38°50' W 090°07'0 0.0
2018-Feb-18 09:01N 38°50' W 090°07'0 0.0
2018-Feb-18 08:30N 38°50' W 090°07'0 0.0
2018-Feb-18 08:00N 38°50' W 090°07'0 0.0
2018-Feb-18 07:30N 38°50' W 090°07'0 0.0
2018-Feb-18 07:00N 38°50' W 090°07'0 0.0
2018-Feb-18 06:30N 38°50' W 090°07'0 0.0
2018-Feb-18 06:01N 38°50' W 090°07'0 0.0
2018-Feb-18 05:30N 38°50' W 090°07'0 0.0
2018-Feb-18 05:01N 38°50' W 090°07'0 0.0
2018-Feb-18 04:30N 38°50' W 090°07'0 0.0
2018-Feb-18 04:01N 38°50' W 090°07'0 0.0
2018-Feb-18 03:31N 38°50' W 090°07'0 0.0
2018-Feb-18 03:00N 38°50' W 090°07'0 0.0
2018-Feb-18 02:30N 38°50' W 090°07'0 0.0
2018-Feb-18 02:00N 38°50' W 090°07'0 0.0
2018-Feb-18 01:30N 38°50' W 090°07'0 0.0
2018-Feb-18 01:00N 38°50' W 090°07'0 0.0
2018-Feb-18 00:30N 38°50' W 090°07'0 0.0
2018-Feb-18 00:00N 38°50' W 090°07'0 0.9
2018-Feb-17 23:31N 38°49' W 090°07'0 0.0
2018-Feb-17 23:00N 38°49' W 090°07'0 0.0
2018-Feb-17 22:30N 38°49' W 090°07'0 0.0
2018-Feb-17 22:00N 38°49' W 090°07'0 0.0
2018-Feb-17 21:30N 38°49' W 090°07'0 0.0
2018-Feb-17 21:00N 38°49' W 090°07'0 0.0
2018-Feb-17 20:31N 38°49' W 090°07'0 0.0
2018-Feb-17 20:00N 38°49' W 090°07'0 0.0
2018-Feb-17 19:30N 38°49' W 090°07'0 0.0
2018-Feb-17 19:00N 38°49' W 090°07'0 0.0
2018-Feb-17 18:31N 38°49' W 090°07'0 0.0
2018-Feb-17 18:00N 38°49' W 090°07'0 0.0
2018-Feb-17 17:30N 38°49' W 090°07'0 0.0
2018-Feb-17 17:01N 38°49' W 090°07'0 0.0
2018-Feb-17 16:30N 38°49' W 090°07'0 0.0
2018-Feb-17 16:01N 38°49' W 090°07'0 0.0
2018-Feb-17 15:30N 38°49' W 090°07'0 0.0
2018-Feb-17 15:01N 38°49' W 090°07'0 0.0
2018-Feb-17 14:30N 38°49' W 090°07'0 0.0
2018-Feb-17 14:00N 38°49' W 090°07'0 0.8
2018-Feb-17 13:30N 38°50' W 090°07'0 0.1
2018-Feb-17 13:00N 38°50' W 090°07'0 0.0
2018-Feb-17 12:30N 38°50' W 090°07'0 0.0
2018-Feb-17 12:01N 38°50' W 090°07'0 0.0
2018-Feb-17 11:30N 38°50' W 090°07'0 0.0
2018-Feb-17 11:00N 38°50' W 090°07'0 0.0
2018-Feb-17 10:30N 38°50' W 090°07'0 0.0
2018-Feb-17 10:00N 38°50' W 090°07'0 0.0
2018-Feb-17 09:30N 38°50' W 090°07'0 0.0
2018-Feb-17 09:00N 38°50' W 090°07'0 0.0
2018-Feb-17 08:31N 38°50' W 090°07'0 0.0
2018-Feb-17 08:00N 38°50' W 090°07'0 0.0
2018-Feb-17 07:31N 38°50' W 090°07'0 0.0
2018-Feb-17 07:00N 38°50' W 090°07'0 0.0
2018-Feb-17 06:30N 38°50' W 090°07'0 0.0
2018-Feb-17 06:00N 38°50' W 090°07'0 0.0
2018-Feb-17 05:30N 38°50' W 090°07'0 0.0
2018-Feb-17 05:00N 38°50' W 090°07'0 0.0
2018-Feb-17 04:30N 38°50' W 090°07'0 0.0
2018-Feb-17 04:00N 38°50' W 090°07'0 0.0
2018-Feb-17 03:30N 38°50' W 090°07'0 0.0
2018-Feb-17 03:01N 38°50' W 090°07'0 0.0
2018-Feb-17 02:31N 38°50' W 090°07'0 0.0
2018-Feb-17 02:00N 38°50' W 090°07'0 0.0
2018-Feb-17 01:30N 38°50' W 090°07'0 0.0
2018-Feb-17 01:00N 38°50' W 090°07'0 0.0
2018-Feb-17 00:30N 38°50' W 090°07'0 0.9
2018-Feb-17 00:00N 38°49' W 090°07'0 0.9
2018-Feb-16 23:30N 38°50' W 090°07'0 0.1
2018-Feb-16 23:00N 38°50' W 090°07'0 0.0
2018-Feb-16 22:30N 38°50' W 090°07'0 0.0
2018-Feb-16 22:01N 38°50' W 090°07'0 0.0
2018-Feb-16 21:31N 38°50' W 090°07'0 0.0
2018-Feb-16 21:00N 38°50' W 090°07'0 0.0
2018-Feb-16 20:31N 38°50' W 090°07'0 0.0
2018-Feb-16 20:00N 38°50' W 090°07'0 0.0
2018-Feb-16 19:30N 38°50' W 090°07'0 0.0
2018-Feb-16 19:00N 38°50' W 090°07'0 0.0
2018-Feb-16 18:30N 38°50' W 090°07'0 0.0
2018-Feb-16 18:00N 38°50' W 090°07'0 0.0
2018-Feb-16 17:30N 38°50' W 090°07'0 0.0
2018-Feb-16 17:00N 38°50' W 090°07'0 0.0
2018-Feb-16 16:30N 38°50' W 090°07'0 0.0
2018-Feb-16 16:01N 38°50' W 090°07'0 0.0
2018-Feb-16 15:31N 38°50' W 090°07'0 0.0
2018-Feb-16 15:00N 38°50' W 090°07'0 0.0
2018-Feb-16 14:31N 38°50' W 090°07'0 0.0
2018-Feb-16 14:00N 38°50' W 090°07'0 0.0
2018-Feb-16 13:30N 38°50' W 090°07'0 0.0
2018-Feb-16 13:01N 38°50' W 090°07'0 0.0
2018-Feb-16 12:30N 38°50' W 090°07'0 0.0
2018-Feb-16 12:00N 38°50' W 090°07'0 0.0
2018-Feb-16 11:30N 38°50' W 090°07'0 0.0
2018-Feb-16 11:00N 38°50' W 090°07'0 0.2
2018-Feb-16 10:30N 38°50' W 090°07'0 0.3
2018-Feb-16 10:01N 38°50' W 090°07'0 0.0
2018-Feb-16 09:30N 38°50' W 090°07'0 0.0
2018-Feb-16 09:00N 38°50' W 090°07'0 0.0
2018-Feb-16 08:30N 38°50' W 090°07'0 0.0
2018-Feb-16 08:00N 38°50' W 090°07'0 0.0
2018-Feb-16 07:30N 38°50' W 090°07'0 0.0
2018-Feb-16 07:00N 38°50' W 090°07'0 0.0
2018-Feb-16 06:30N 38°50' W 090°07'0 0.0
2018-Feb-16 06:01N 38°50' W 090°07'0 0.0
2018-Feb-16 05:30N 38°50' W 090°07'0 0.0
2018-Feb-16 05:00N 38°50' W 090°07'0 0.0
2018-Feb-16 04:30N 38°50' W 090°07'0 0.0
2018-Feb-16 04:00N 38°50' W 090°07'0 0.0
2018-Feb-16 03:30N 38°50' W 090°07'0 0.0
2018-Feb-16 03:00N 38°50' W 090°07'0 0.0
2018-Feb-16 02:30N 38°50' W 090°07'0 0.0
2018-Feb-16 02:00N 38°50' W 090°07'0 0.0
2018-Feb-16 01:30N 38°50' W 090°07'0 0.0
2018-Feb-16 00:48N 38°50' W 090°07'0 0.0
2018-Feb-16 00:30N 38°50' W 090°07'0 0.0
2018-Feb-16 00:01N 38°50' W 090°07'0 0.0
2018-Feb-15 23:31N 38°50' W 090°07'0 0.0
2018-Feb-15 23:00N 38°50' W 090°07'0 0.0
2018-Feb-15 22:30N 38°50' W 090°07'0 0.0
2018-Feb-15 22:01N 38°50' W 090°07'0 0.0
2018-Feb-15 21:30N 38°50' W 090°07'0 0.0
2018-Feb-15 21:00N 38°50' W 090°07'0 0.1
2018-Feb-15 20:30N 38°50' W 090°07'1 2.5
2018-Feb-15 20:00N 38°51' W 090°06'1 2.5
2018-Feb-15 19:29N 38°50' W 090°07'0 0.0
2018-Feb-15 19:00N 38°50' W 090°07'0 0.0
2018-Feb-15 18:30N 38°50' W 090°07'0 0.0
2018-Feb-15 18:00N 38°50' W 090°07'0 0.0
2018-Feb-15 17:30N 38°50' W 090°07'0 0.0
2018-Feb-15 17:00N 38°50' W 090°07'0 0.9
2018-Feb-15 16:30N 38°50' W 090°07'1 1.6
2018-Feb-15 16:00N 38°51' W 090°06'1 2.6
2018-Feb-15 15:30N 38°50' W 090°07'0 0.0
2018-Feb-15 15:00N 38°50' W 090°07'0 0.0
2018-Feb-15 14:30N 38°50' W 090°07'0 0.0
2018-Feb-15 14:00N 38°50' W 090°07'0 0.0
2018-Feb-15 13:30N 38°50' W 090°07'0 0.0
2018-Feb-15 13:00N 38°50' W 090°07'0 0.0
2018-Feb-15 12:30N 38°50' W 090°07'0 0.0
2018-Feb-15 12:00N 38°50' W 090°07'0 0.0
2018-Feb-15 11:30N 38°50' W 090°07'0 0.0
2018-Feb-15 10:46N 38°50' W 090°07'0 0.0
2018-Feb-15 10:30N 38°50' W 090°07'0 0.0
2018-Feb-15 09:47N 38°50' W 090°07'0 0.0
2018-Feb-15 09:30N 38°50' W 090°07'0 0.0
2018-Feb-15 09:00N 38°50' W 090°07'0 0.0
2018-Feb-15 08:30N 38°50' W 090°07'0 0.0
2018-Feb-15 08:00N 38°50' W 090°07'0 0.0
2018-Feb-15 07:30N 38°50' W 090°07'2 3.1
2018-Feb-15 07:00N 38°48' W 090°07'3 6.2
2018-Feb-15 06:31N 38°45' W 090°09'  
Track history (hours):
 
Tides and Currents Weather Stations Pressure Air Temp Water Temp Dewpoint Dewpoint Depression Visibility Wind Speed Wind Dir Waves Ship Positions

John Grimsley #59

Owner: Florida Marine Transporters, Inc., Mandeville, LA. More information available from US FCC via Universal Licensing System and Coast Guard Vessel Documentation Center.

Last reported at 2018-Feb-20 00:49 UTC. Time now 2018-Feb-23 06:54 UTC.
Position N 38°37' W 090°11'.

Length 43 m; draft 3.2 m.

Type: Ship. MMSI: 367398790.

Date/timePositionNaut miles runAvg speedWind from/ knotsBaromVisibWave heightAir tempDewpointWater temp
2018-Feb-20 00:49N 38°37' W 090°11'3 7.9
2018-Feb-20 00:27N 38°40' W 090°11'2 4.4
2018-Feb-20 00:00N 38°42' W 090°11'1 0.9
2018-Feb-19 23:28N 38°42' W 090°11'1 2.6
2018-Feb-19 23:00N 38°43' W 090°10'2 4.4
2018-Feb-19 22:30N 38°45' W 090°09'2 3.9
2018-Feb-19 22:00N 38°47' W 090°08'3 5.5
2018-Feb-19 21:30N 38°50' W 090°07'0 0.6
2018-Feb-19 21:00N 38°49' W 090°07'0 0.1
2018-Feb-19 20:31N 38°49' W 090°07'0 0.1
2018-Feb-19 20:00N 38°49' W 090°07'0 0.0
2018-Feb-19 19:30N 38°49' W 090°07'1 1.6
2018-Feb-19 19:01N 38°50' W 090°06'0 0.1
2018-Feb-19 18:29N 38°50' W 090°06'0 0.0
2018-Feb-19 18:00N 38°50' W 090°06'2 3.4
2018-Feb-19 17:30N 38°48' W 090°07'3 5.8
2018-Feb-19 17:00N 38°46' W 090°08'3 5.9
2018-Feb-19 16:30N 38°43' W 090°10'1 2.7
2018-Feb-19 16:00N 38°42' W 090°11'3 5.2
2018-Feb-19 15:29N 38°39' W 090°11'4 0.9
2018-Feb-19 11:34N 38°36' W 090°12'2 7.3
2018-Feb-19 11:20N 38°37' W 090°11'3 9.2
2018-Feb-19 11:00N 38°40' W 090°11'2 3.1
2018-Feb-19 10:26N 38°42' W 090°11'1 2.1
2018-Feb-19 09:57N 38°43' W 090°10'2 5.2
2018-Feb-19 09:29N 38°45' W 090°09'3 5.4
2018-Feb-19 09:00N 38°47' W 090°07'1 1.4
2018-Feb-19 08:31N 38°48' W 090°07'0 0.2
2018-Feb-19 08:00N 38°48' W 090°07'1 1.1
2018-Feb-19 07:30N 38°49' W 090°07'1 1.3
2018-Feb-19 07:00N 38°49' W 090°07'0 0.1
2018-Feb-19 06:31N 38°49' W 090°07'0 0.2
2018-Feb-19 06:01N 38°49' W 090°07'0 0.8
2018-Feb-19 05:30N 38°50' W 090°07'0 0.0
2018-Feb-19 05:01N 38°50' W 090°07'0 0.0
2018-Feb-19 04:30N 38°50' W 090°07'0 0.0
2018-Feb-19 04:00N 38°50' W 090°07'0 0.0
2018-Feb-19 03:31N 38°50' W 090°07'0 0.0
2018-Feb-19 03:01N 38°50' W 090°07'0 0.0
2018-Feb-19 02:31N 38°50' W 090°07'0 0.0
2018-Feb-19 02:00N 38°50' W 090°07'0 0.0
2018-Feb-19 01:31N 38°50' W 090°07'0 0.0
2018-Feb-19 01:00N 38°50' W 090°07'0 0.0
2018-Feb-19 00:30N 38°50' W 090°07'0 0.0
2018-Feb-19 00:00N 38°50' W 090°07'0 0.0
2018-Feb-18 23:30N 38°50' W 090°07'0 0.0
2018-Feb-18 23:00N 38°50' W 090°07'0 0.0
2018-Feb-18 22:30N 38°50' W 090°07'0 0.0
2018-Feb-18 22:01N 38°50' W 090°07'0 0.0
2018-Feb-18 21:30N 38°50' W 090°07'0 0.0
2018-Feb-18 21:00N 38°50' W 090°07'0 0.0
2018-Feb-18 20:30N 38°50' W 090°07'0 0.0
2018-Feb-18 20:00N 38°50' W 090°07'0 0.0
2018-Feb-18 19:30N 38°50' W 090°07'0 0.0
2018-Feb-18 19:00N 38°50' W 090°07'0 0.0
2018-Feb-18 18:30N 38°50' W 090°07'0 0.0
2018-Feb-18 18:00N 38°50' W 090°07'0 0.0
2018-Feb-18 17:30N 38°50' W 090°07'0 0.0
2018-Feb-18 17:00N 38°50' W 090°07'0 0.0
2018-Feb-18 16:30N 38°50' W 090°07'0 0.0
2018-Feb-18 16:01N 38°50' W 090°07'0 0.0
2018-Feb-18 15:30N 38°50' W 090°07'0 0.3
2018-Feb-18 15:00N 38°49' W 090°07'0 0.6
2018-Feb-18 14:30N 38°49' W 090°07'0 0.8
2018-Feb-18 14:00N 38°50' W 090°07'0 0.0
2018-Feb-18 13:30N 38°50' W 090°07'0 0.0
2018-Feb-18 13:00N 38°50' W 090°07'0 0.0
2018-Feb-18 12:30N 38°50' W 090°07'0 0.0
2018-Feb-18 12:01N 38°50' W 090°07'0 0.0
2018-Feb-18 11:31N 38°50' W 090°07'0 0.0
2018-Feb-18 11:00N 38°50' W 090°07'0 0.0
2018-Feb-18 10:30N 38°50' W 090°07'0 0.0
2018-Feb-18 10:01N 38°50' W 090°07'0 0.0
2018-Feb-18 09:30N 38°50' W 090°07'0 0.0
2018-Feb-18 09:01N 38°50' W 090°07'0 0.0
2018-Feb-18 08:30N 38°50' W 090°07'0 0.0
2018-Feb-18 08:00N 38°50' W 090°07'0 0.0
2018-Feb-18 07:30N 38°50' W 090°07'0 0.0
2018-Feb-18 07:00N 38°50' W 090°07'0 0.0
2018-Feb-18 06:30N 38°50' W 090°07'0 0.0
2018-Feb-18 06:01N 38°50' W 090°07'0 0.0
2018-Feb-18 05:30N 38°50' W 090°07'0 0.0
2018-Feb-18 05:01N 38°50' W 090°07'0 0.0
2018-Feb-18 04:30N 38°50' W 090°07'0 0.0
2018-Feb-18 04:01N 38°50' W 090°07'0 0.0
2018-Feb-18 03:31N 38°50' W 090°07'0 0.0
2018-Feb-18 03:00N 38°50' W 090°07'0 0.0
2018-Feb-18 02:30N 38°50' W 090°07'0 0.0
2018-Feb-18 02:00N 38°50' W 090°07'0 0.0
2018-Feb-18 01:30N 38°50' W 090°07'0 0.0
2018-Feb-18 01:00N 38°50' W 090°07'0 0.0
2018-Feb-18 00:30N 38°50' W 090°07'0 0.0
2018-Feb-18 00:00N 38°50' W 090°07'0 0.9
2018-Feb-17 23:31N 38°49' W 090°07'0 0.0
2018-Feb-17 23:00N 38°49' W 090°07'0 0.0
2018-Feb-17 22:30N 38°49' W 090°07'0 0.0
2018-Feb-17 22:00N 38°49' W 090°07'0 0.0
2018-Feb-17 21:30N 38°49' W 090°07'0 0.0
2018-Feb-17 21:00N 38°49' W 090°07'0 0.0
2018-Feb-17 20:31N 38°49' W 090°07'0 0.0
2018-Feb-17 20:00N 38°49' W 090°07'0 0.0
2018-Feb-17 19:30N 38°49' W 090°07'0 0.0
2018-Feb-17 19:00N 38°49' W 090°07'0 0.0
2018-Feb-17 18:31N 38°49' W 090°07'0 0.0
2018-Feb-17 18:00N 38°49' W 090°07'0 0.0
2018-Feb-17 17:30N 38°49' W 090°07'0 0.0
2018-Feb-17 17:01N 38°49' W 090°07'0 0.0
2018-Feb-17 16:30N 38°49' W 090°07'0 0.0
2018-Feb-17 16:01N 38°49' W 090°07'0 0.0
2018-Feb-17 15:30N 38°49' W 090°07'0 0.0
2018-Feb-17 15:01N 38°49' W 090°07'0 0.0
2018-Feb-17 14:30N 38°49' W 090°07'0 0.0
2018-Feb-17 14:00N 38°49' W 090°07'0 0.8
2018-Feb-17 13:30N 38°50' W 090°07'0 0.1
2018-Feb-17 13:00N 38°50' W 090°07'0 0.0
2018-Feb-17 12:30N 38°50' W 090°07'0 0.0
2018-Feb-17 12:01N 38°50' W 090°07'0 0.0
2018-Feb-17 11:30N 38°50' W 090°07'0 0.0
2018-Feb-17 11:00N 38°50' W 090°07'0 0.0
2018-Feb-17 10:30N 38°50' W 090°07'0 0.0
2018-Feb-17 10:00N 38°50' W 090°07'0 0.0
2018-Feb-17 09:30N 38°50' W 090°07'0 0.0
2018-Feb-17 09:00N 38°50' W 090°07'0 0.0
2018-Feb-17 08:31N 38°50' W 090°07'0 0.0
2018-Feb-17 08:00N 38°50' W 090°07'0 0.0
2018-Feb-17 07:31N 38°50' W 090°07'0 0.0
2018-Feb-17 07:00N 38°50' W 090°07'0 0.0
2018-Feb-17 06:30N 38°50' W 090°07'0 0.0
2018-Feb-17 06:00N 38°50' W 090°07'0 0.0
2018-Feb-17 05:30N 38°50' W 090°07'0 0.0
2018-Feb-17 05:00N 38°50' W 090°07'0 0.0
2018-Feb-17 04:30N 38°50' W 090°07'0 0.0
2018-Feb-17 04:00N 38°50' W 090°07'0 0.0
2018-Feb-17 03:30N 38°50' W 090°07'0 0.0
2018-Feb-17 03:01N 38°50' W 090°07'0 0.0
2018-Feb-17 02:31N 38°50' W 090°07'0 0.0
2018-Feb-17 02:00N 38°50' W 090°07'0 0.0
2018-Feb-17 01:30N 38°50' W 090°07'0 0.0
2018-Feb-17 01:00N 38°50' W 090°07'0 0.0
2018-Feb-17 00:30N 38°50' W 090°07'0 0.9
2018-Feb-17 00:00N 38°49' W 090°07'0 0.9
2018-Feb-16 23:30N 38°50' W 090°07'0 0.1
2018-Feb-16 23:00N 38°50' W 090°07'0 0.0
2018-Feb-16 22:30N 38°50' W 090°07'0 0.0
2018-Feb-16 22:01N 38°50' W 090°07'0 0.0
2018-Feb-16 21:31N 38°50' W 090°07'0 0.0
2018-Feb-16 21:00N 38°50' W 090°07'0 0.0
2018-Feb-16 20:31N 38°50' W 090°07'0 0.0
2018-Feb-16 20:00N 38°50' W 090°07'0 0.0
2018-Feb-16 19:30N 38°50' W 090°07'0 0.0
2018-Feb-16 19:00N 38°50' W 090°07'0 0.0
2018-Feb-16 18:30N 38°50' W 090°07'0 0.0
2018-Feb-16 18:00N 38°50' W 090°07'0 0.0
2018-Feb-16 17:30N 38°50' W 090°07'0 0.0
2018-Feb-16 17:00N 38°50' W 090°07'0 0.0
2018-Feb-16 16:30N 38°50' W 090°07'0 0.0
2018-Feb-16 16:01N 38°50' W 090°07'0 0.0
2018-Feb-16 15:31N 38°50' W 090°07'0 0.0
2018-Feb-16 15:00N 38°50' W 090°07'0 0.0
2018-Feb-16 14:31N 38°50' W 090°07'0 0.0
2018-Feb-16 14:00N 38°50' W 090°07'0 0.0
2018-Feb-16 13:30N 38°50' W 090°07'0 0.0
2018-Feb-16 13:01N 38°50' W 090°07'0 0.0
2018-Feb-16 12:30N 38°50' W 090°07'0 0.0
2018-Feb-16 12:00N 38°50' W 090°07'0 0.0
2018-Feb-16 11:30N 38°50' W 090°07'0 0.0
2018-Feb-16 11:00N 38°50' W 090°07'0 0.2
2018-Feb-16 10:30N 38°50' W 090°07'0 0.3
2018-Feb-16 10:01N 38°50' W 090°07'0 0.0
2018-Feb-16 09:30N 38°50' W 090°07'0 0.0
2018-Feb-16 09:00N 38°50' W 090°07'0 0.0
2018-Feb-16 08:30N 38°50' W 090°07'0 0.0
2018-Feb-16 08:00N 38°50' W 090°07'0 0.0
2018-Feb-16 07:30N 38°50' W 090°07'0 0.0
2018-Feb-16 07:00N 38°50' W 090°07'0 0.0
2018-Feb-16 06:30N 38°50' W 090°07'0 0.0
2018-Feb-16 06:01N 38°50' W 090°07'0 0.0
2018-Feb-16 05:30N 38°50' W 090°07'0 0.0
2018-Feb-16 05:00N 38°50' W 090°07'0 0.0
2018-Feb-16 04:30N 38°50' W 090°07'0 0.0
2018-Feb-16 04:00N 38°50' W 090°07'0 0.0
2018-Feb-16 03:30N 38°50' W 090°07'0 0.0
2018-Feb-16 03:00N 38°50' W 090°07'0 0.0
2018-Feb-16 02:30N 38°50' W 090°07'0 0.0
2018-Feb-16 02:00N 38°50' W 090°07'0 0.0
2018-Feb-16 01:30N 38°50' W 090°07'0 0.0
2018-Feb-16 00:48N 38°50' W 090°07'0 0.0
2018-Feb-16 00:30N 38°50' W 090°07'0 0.0
2018-Feb-16 00:01N 38°50' W 090°07'0 0.0
2018-Feb-15 23:31N 38°50' W 090°07'0 0.0
2018-Feb-15 23:00N 38°50' W 090°07'0 0.0
2018-Feb-15 22:30N 38°50' W 090°07'0 0.0
2018-Feb-15 22:01N 38°50' W 090°07'0 0.0
2018-Feb-15 21:30N 38°50' W 090°07'0 0.0
2018-Feb-15 21:00N 38°50' W 090°07'0 0.1
2018-Feb-15 20:30N 38°50' W 090°07'1 2.5
2018-Feb-15 20:00N 38°51' W 090°06'1 2.5
2018-Feb-15 19:29N 38°50' W 090°07'0 0.0
2018-Feb-15 19:00N 38°50' W 090°07'0 0.0
2018-Feb-15 18:30N 38°50' W 090°07'0 0.0
2018-Feb-15 18:00N 38°50' W 090°07'0 0.0
2018-Feb-15 17:30N 38°50' W 090°07'0 0.0
2018-Feb-15 17:00N 38°50' W 090°07'0 0.9
2018-Feb-15 16:30N 38°50' W 090°07'1 1.6
2018-Feb-15 16:00N 38°51' W 090°06'1 2.6
2018-Feb-15 15:30N 38°50' W 090°07'0 0.0
2018-Feb-15 15:00N 38°50' W 090°07'0 0.0
2018-Feb-15 14:30N 38°50' W 090°07'0 0.0
2018-Feb-15 14:00N 38°50' W 090°07'0 0.0
2018-Feb-15 13:30N 38°50' W 090°07'0 0.0
2018-Feb-15 13:00N 38°50' W 090°07'0 0.0
2018-Feb-15 12:30N 38°50' W 090°07'0 0.0
2018-Feb-15 12:00N 38°50' W 090°07'0 0.0
2018-Feb-15 11:30N 38°50' W 090°07'0 0.0
2018-Feb-15 10:46N 38°50' W 090°07'0 0.0
2018-Feb-15 10:30N 38°50' W 090°07'0 0.0
2018-Feb-15 09:47N 38°50' W 090°07'0 0.0
2018-Feb-15 09:30N 38°50' W 090°07'0 0.0
2018-Feb-15 09:00N 38°50' W 090°07'0 0.0
2018-Feb-15 08:30N 38°50' W 090°07'0 0.0
2018-Feb-15 08:00N 38°50' W 090°07'0 0.0
2018-Feb-15 07:30N 38°50' W 090°07'2 3.1
2018-Feb-15 07:00N 38°48' W 090°07'3 6.2
2018-Feb-15 06:31N 38°45' W 090°09'  

Dump ship's entire track history